Time;durP1;ratioP1;P1;durP2;ratioP2;P2;SDS_P1;SDS_P2;PMS_P1;PMS_P2;Temp;Humidity;BMP_temperature;BMP_pressure;BME280_temperature;BME280_humidity;BME280_pressure;Samples;Min_cycle;Max_cycle;Signal;HPM_P1;HPM_P2
2022/09/18 00:01:16;;;;;;;3.60;1.70;;;;;;;8.63;100.00;97817.44;4499883;31;20084;-74
2022/09/18 00:03:45;;;;;;;5.30;1.80;;;;;;;8.62;100.00;97810.59;4499945;31;20197;-74
2022/09/18 00:06:18;;;;;;;3.20;1.75;;;;;;;8.60;100.00;97804.69;4487934;31;20144;-74
2022/09/18 00:08:48;;;;;;;4.07;1.85;;;;;;;8.64;100.00;97796.41;4502302;31;20163;-74
2022/09/18 00:11:15;;;;;;;6.72;2.53;;;;;;;8.62;100.00;97806.19;4501887;31;20468;-74
2022/09/18 00:13:43;;;;;;;11.98;2.28;;;;;;;8.61;100.00;97794.09;4502157;31;20445;-74
2022/09/18 00:16:12;;;;;;;2.75;1.70;;;;;;;8.62;100.00;97797.56;4501798;31;20608;-74
2022/09/18 00:18:40;;;;;;;5.87;2.25;;;;;;;8.59;100.00;97797.84;4502050;31;20088;-74
2022/09/18 00:21:28;;;;;;;4.50;1.50;;;;;;;8.58;100.00;97802.22;4501884;31;20139;-74
2022/09/18 00:23:57;;;;;;;6.05;1.55;;;;;;;8.54;100.00;97798.31;4502136;31;20121;-74
2022/09/18 00:26:24;;;;;;;4.37;1.52;;;;;;;8.47;100.00;97803.28;4501851;31;20155;-73
2022/09/18 00:28:53;;;;;;;3.15;1.58;;;;;;;8.50;100.00;97804.78;4501934;31;20453;-73
2022/09/18 00:31:26;;;;;;;7.97;1.77;;;;;;;8.45;100.00;97805.22;4501627;31;20701;-74
2022/09/18 00:33:54;;;;;;;3.25;1.60;;;;;;;8.43;100.00;97806.28;4501693;31;20159;-74
2022/09/18 00:36:22;;;;;;;2.37;1.40;;;;;;;8.39;100.00;97804.94;4501812;31;20110;-73
2022/09/18 00:38:49;;;;;;;2.83;1.20;;;;;;;8.36;100.00;97806.06;4501827;31;20119;-73
2022/09/18 00:41:18;;;;;;;6.72;1.85;;;;;;;8.35;100.00;97797.41;4501721;31;20084;-73
2022/09/18 00:43:45;;;;;;;3.97;1.60;;;;;;;8.29;100.00;97805.00;4501848;31;20542;-73
2022/09/18 00:46:31;;;;;;;4.30;1.70;;;;;;;8.27;100.00;97802.56;4501744;31;20091;-73
2022/09/18 00:49:16;;;;;;;2.90;1.48;;;;;;;8.26;100.00;97807.91;4500611;31;20104;-73
2022/09/18 00:51:45;;;;;;;3.03;1.40;;;;;;;8.24;100.00;97804.66;4501917;31;20826;-73
2022/09/18 00:54:15;;;;;;;6.12;1.62;;;;;;;8.17;100.00;97807.00;4501774;31;20540;-73
2022/09/18 00:56:43;;;;;;;6.55;1.30;;;;;;;8.14;100.00;97812.50;4501682;31;20121;-73
2022/09/18 00:59:12;;;;;;;2.80;1.52;;;;;;;8.15;100.00;97814.16;4500384;31;20113;-73
2022/09/18 01:01:39;;;;;;;1.73;1.20;;;;;;;8.11;100.00;97818.00;4501411;31;20213;-73
2022/09/18 01:04:13;;;;;;;4.82;1.48;;;;;;;8.06;100.00;97815.84;4500336;31;20146;-73
2022/09/18 01:07:08;;;;;;;4.50;1.85;;;;;;;8.05;100.00;97821.19;4490700;31;20138;-73
2022/09/18 01:09:47;;;;;;;2.42;1.10;;;;;;;8.03;100.00;97830.97;4501852;31;20091;-73
2022/09/18 01:12:21;;;;;;;5.68;1.55;;;;;;;8.02;100.00;97830.13;4500270;31;20104;-74
2022/09/18 01:14:51;;;;;;;2.15;1.12;;;;;;;7.97;100.00;97834.97;4501969;31;20163;-73
2022/09/18 01:17:32;;;;;;;4.60;1.40;;;;;;;7.96;100.00;97835.91;4500785;31;20092;-73
2022/09/18 01:20:11;;;;;;;2.62;0.95;;;;;;;7.95;100.00;97845.53;4501553;31;20418;-73
2022/09/18 01:23:04;;;;;;;3.08;1.15;;;;;;;7.93;100.00;97844.87;4500167;31;20434;-73
2022/09/18 01:26:25;;;;;;;2.58;1.10;;;;;;;7.92;100.00;97850.22;4501524;31;20080;-73
2022/09/18 01:28:58;;;;;;;2.97;1.30;;;;;;;7.92;100.00;97861.47;4436627;32;20168;-73
2022/09/18 01:31:40;;;;;;;3.42;1.37;;;;;;;7.93;100.00;97873.56;4423690;32;20132;-73
2022/09/18 01:34:41;;;;;;;9.43;1.20;;;;;;;7.89;100.00;97876.56;4436506;32;20448;-73
2022/09/18 01:37:15;;;;;;;1.77;1.00;;;;;;;7.86;100.00;97877.69;4436344;32;20205;-73
2022/09/18 01:39:51;;;;;;;4.82;1.33;;;;;;;7.92;100.00;97884.94;4436657;32;20498;-74
2022/09/18 01:42:20;;;;;;;2.87;1.25;;;;;;;7.88;100.00;97887.97;4423917;32;20159;-73
2022/09/18 01:44:48;;;;;;;3.53;1.10;;;;;;;7.89;100.00;97903.47;4423850;32;20426;-73
2022/09/18 01:47:16;;;;;;;2.95;1.20;;;;;;;7.87;100.00;97908.00;4423694;32;20110;-73
2022/09/18 01:49:47;;;;;;;2.17;1.30;;;;;;;7.80;100.00;97910.38;4423701;32;20181;-73
2022/09/18 01:52:19;;;;;;;5.20;1.02;;;;;;;7.81;100.00;97917.22;4436236;32;20101;-73
2022/09/18 01:54:49;;;;;;;3.05;0.70;;;;;;;7.83;100.00;97919.69;4436548;32;20089;-73
2022/09/18 01:57:33;;;;;;;2.05;0.98;;;;;;;7.82;100.00;97918.84;4423709;32;20117;-73
2022/09/18 02:00:07;;;;;;;7.07;1.37;;;;;;;7.82;100.00;97925.88;4423696;32;20510;-73
2022/09/18 02:02:53;;;;;;;4.07;1.23;;;;;;;7.74;100.00;97923.97;4462274;31;20103;-74
2022/09/18 02:05:38;;;;;;;1.95;1.02;;;;;;;7.72;100.00;97923.28;4491970;31;20100;-74
2022/09/18 02:08:21;;;;;;;10.30;1.00;;;;;;;7.62;100.00;97923.28;4483985;32;20427;-73
2022/09/18 02:11:01;;;;;;;3.97;1.00;;;;;;;7.61;100.00;97923.44;4484620;32;20138;-74
2022/09/18 02:13:31;;;;;;;6.62;1.23;;;;;;;7.60;100.00;97927.81;4485467;31;20107;-74
2022/09/18 02:16:02;;;;;;;2.85;1.20;;;;;;;7.55;100.00;97932.62;4484601;32;20147;-73
2022/09/18 02:18:34;;;;;;;2.12;1.05;;;;;;;7.55;100.00;97937.84;4484234;32;20557;-73
2022/09/18 02:21:07;;;;;;;6.05;1.30;;;;;;;7.52;100.00;97945.94;4485649;31;20102;-74
2022/09/18 02:23:36;;;;;;;0.88;0.80;;;;;;;7.44;100.00;97941.41;4485278;31;20091;-73
2022/09/18 02:26:06;;;;;;;2.58;0.80;;;;;;;7.40;100.00;97945.28;4484081;32;20085;-74
2022/09/18 02:28:34;;;;;;;1.77;0.70;;;;;;;7.36;100.00;97946.50;4484962;31;20143;-73
2022/09/18 02:31:01;;;;;;;2.78;1.00;;;;;;;7.31;100.00;97953.06;4484238;32;20138;-74
2022/09/18 02:33:32;;;;;;;2.83;0.98;;;;;;;7.31;100.00;97959.09;4485038;31;20171;-74
2022/09/18 02:36:46;;;;;;;3.03;0.68;;;;;;;7.27;100.00;97971.56;4485181;31;20084;-73
2022/09/18 02:39:16;;;;;;;5.25;0.90;;;;;;;7.18;100.00;97961.97;4438714;32;20125;-74
2022/09/18 02:42:08;;;;;;;1.62;0.88;;;;;;;7.18;100.00;97961.97;4451497;32;20713;-73
2022/09/18 02:44:38;;;;;;;1.33;0.62;;;;;;;7.21;100.00;97964.31;4438652;32;20156;-73
2022/09/18 02:47:31;;;;;;;1.92;0.80;;;;;;;7.20;100.00;97973.06;4451403;32;20403;-73
2022/09/18 02:50:28;;;;;;;1.87;0.75;;;;;;;7.15;100.00;97967.47;4443859;32;20144;-73
2022/09/18 02:53:29;;;;;;;1.23;0.90;;;;;;;7.10;100.00;97973.06;4439031;32;20113;-73
2022/09/18 02:56:05;;;;;;;1.67;0.70;;;;;;;7.06;100.00;97965.66;4375463;32;20157;-73
2022/09/18 02:59:10;;;;;;;2.08;0.80;;;;;;;7.04;100.00;97964.97;4363108;32;20170;-74
2022/09/18 03:01:40;;;;;;;3.70;0.87;;;;;;;6.93;100.00;97965.91;4345356;33;20115;-74
2022/09/18 03:04:13;;;;;;;1.23;0.70;;;;;;;6.91;100.00;97967.81;4333383;33;20193;-73
2022/09/18 03:06:40;;;;;;;1.85;1.00;;;;;;;6.87;100.00;97969.03;4345130;33;20111;-73
2022/09/18 03:09:08;;;;;;;2.10;0.80;;;;;;;6.88;100.00;97971.50;4345401;33;20134;-73
2022/09/18 03:11:36;;;;;;;2.35;1.10;;;;;;;6.80;100.00;97976.56;4345512;33;20691;-74
2022/09/18 03:14:03;;;;;;;3.33;1.10;;;;;;;6.80;100.00;97980.94;4355853;32;20168;-74
2022/09/18 03:16:30;;;;;;;3.03;1.30;;;;;;;6.83;100.00;97986.72;4390194;32;20093;-74
2022/09/18 03:18:58;;;;;;;3.22;1.17;;;;;;;6.78;100.00;97980.25;4389775;32;20522;-74
2022/09/18 03:21:26;;;;;;;2.15;1.00;;;;;;;6.77;100.00;97995.06;4389836;32;20138;-74
2022/09/18 03:23:54;;;;;;;3.55;1.17;;;;;;;6.72;100.00;97999.81;4389984;32;20227;-73
2022/09/18 03:26:22;;;;;;;2.58;1.20;;;;;;;6.69;100.00;97997.47;4390083;32;20197;-74
2022/09/18 03:28:49;;;;;;;2.08;1.20;;;;;;;6.68;100.00;98001.06;4390012;32;20209;-74
2022/09/18 03:31:17;;;;;;;3.05;1.10;;;;;;;6.71;100.00;98006.81;4389998;32;20128;-74
2022/09/18 03:33:45;;;;;;;3.10;1.20;;;;;;;6.72;100.00;98007.62;4441613;32;20159;-74
2022/09/18 03:36:12;;;;;;;4.57;1.30;;;;;;;6.66;100.00;98005.56;4475793;32;20110;-74
2022/09/18 03:38:41;;;;;;;4.70;1.30;;;;;;;6.64;100.00;98010.06;4484849;31;20151;-73
2022/09/18 03:41:08;;;;;;;1.35;1.00;;;;;;;6.59;100.00;98013.06;4483715;31;20119;-73
2022/09/18 03:43:37;;;;;;;6.53;1.42;;;;;;;6.56;100.00;98011.53;4484789;31;20100;-74
2022/09/18 03:46:04;;;;;;;3.75;1.20;;;;;;;6.58;100.00;98006.22;4484585;31;20120;-73
2022/09/18 03:48:32;;;;;;;2.90;1.20;;;;;;;6.54;100.00;98008.25;4484380;32;20104;-74
2022/09/18 03:50:59;;;;;;;1.45;1.00;;;;;;;6.58;100.00;98006.22;4484362;31;20143;-74
2022/09/18 03:53:26;;;;;;;4.28;1.50;;;;;;;6.59;100.00;98017.47;4484347;31;20152;-74
2022/09/18 03:55:53;;;;;;;3.47;1.30;;;;;;;6.56;100.00;98016.75;4484662;31;20438;-74
2022/09/18 03:58:21;;;;;;;2.85;1.00;;;;;;;6.55;100.00;98022.09;4484482;32;20446;-74
2022/09/18 04:00:49;;;;;;;2.92;1.10;;;;;;;6.57;100.00;98027.97;4484055;31;20570;-74
2022/09/18 04:03:16;;;;;;;2.28;1.10;;;;;;;6.56;100.00;98027.16;4484378;31;20160;-74
2022/09/18 04:05:50;;;;;;;2.15;1.08;;;;;;;6.56;100.00;98021.94;4484083;31;20088;-74
2022/09/18 04:08:18;;;;;;;1.97;1.07;;;;;;;6.54;100.00;98025.63;4499887;31;20092;-74
2022/09/18 04:10:47;;;;;;;2.92;1.02;;;;;;;6.47;100.00;98029.72;4500168;31;20538;-74
2022/09/18 04:13:15;;;;;;;2.35;1.33;;;;;;;6.50;100.00;98024.25;4500160;31;20095;-74
2022/09/18 04:15:44;;;;;;;1.35;0.88;;;;;;;6.58;100.00;98037.44;4499971;31;20096;-74
2022/09/18 04:18:11;;;;;;;1.92;1.10;;;;;;;6.50;100.00;98038.09;4499503;31;20419;-74
2022/09/18 04:20:38;;;;;;;3.30;1.20;;;;;;;6.52;100.00;98032.75;4499901;31;20517;-74
2022/09/18 04:23:06;;;;;;;2.53;1.30;;;;;;;6.49;100.00;98038.22;4499902;31;20115;-74
2022/09/18 04:25:34;;;;;;;1.52;1.05;;;;;;;6.60;100.00;98042.50;4499753;31;20100;-74
2022/09/18 04:28:02;;;;;;;3.90;1.10;;;;;;;6.61;100.00;98034.56;4499886;31;20100;-74
2022/09/18 04:30:29;;;;;;;1.50;1.10;;;;;;;6.60;100.00;98045.13;4499558;31;20130;-74
2022/09/18 04:32:57;;;;;;;3.85;1.30;;;;;;;6.61;100.00;98025.94;4499770;31;20091;-74
2022/09/18 04:35:25;;;;;;;2.05;1.30;;;;;;;6.61;100.00;98044.16;4499519;31;20418;-74
2022/09/18 04:37:52;;;;;;;2.25;1.08;;;;;;;6.55;100.00;98050.72;4499808;31;20088;-74
2022/09/18 04:40:20;;;;;;;1.52;0.80;;;;;;;6.57;100.00;98044.44;4499456;31;20088;-74
2022/09/18 04:42:47;;;;;;;1.50;1.20;;;;;;;6.53;100.00;98050.84;4499377;31;20114;-74
2022/09/18 04:45:14;;;;;;;1.15;0.82;;;;;;;6.49;100.00;98041.63;4499736;31;20123;-74
2022/09/18 04:47:44;;;;;;;2.30;1.20;;;;;;;6.53;100.00;98052.63;4498128;31;20158;-74
2022/09/18 04:50:11;;;;;;;3.17;1.12;;;;;;;6.55;100.00;98053.31;4497947;31;20096;-74
2022/09/18 04:52:53;;;;;;;1.40;0.93;;;;;;;6.55;100.00;98059.31;4501447;31;20130;-74
2022/09/18 04:55:21;;;;;;;1.35;1.00;;;;;;;6.56;100.00;98068.78;4502001;31;20445;-74
2022/09/18 04:57:48;;;;;;;1.45;0.90;;;;;;;6.59;100.00;98059.09;4502035;31;20102;-74
2022/09/18 05:00:21;;;;;;;4.32;1.10;;;;;;;6.63;100.00;98060.47;4501902;31;20131;-74
2022/09/18 05:02:48;;;;;;;3.15;0.90;;;;;;;6.68;100.00;98068.72;4501527;31;20087;-74
2022/09/18 05:05:16;;;;;;;1.87;0.95;;;;;;;6.68;100.00;98066.94;4492780;31;20096;-74
2022/09/18 05:07:43;;;;;;;5.40;0.98;;;;;;;6.72;100.00;98078.75;4497582;31;20096;-74
2022/09/18 05:10:10;;;;;;;2.30;0.98;;;;;;;6.80;100.00;98070.28;4500536;31;20120;-74
2022/09/18 05:12:43;;;;;;;1.73;0.82;;;;;;;6.88;100.00;98067.84;4501968;31;20099;-74
2022/09/18 05:15:12;;;;;;;5.80;1.12;;;;;;;6.96;100.00;98074.19;4501675;31;20096;-74
2022/09/18 05:17:39;;;;;;;1.45;0.65;;;;;;;7.03;100.00;98083.94;4501447;31;20080;-74
2022/09/18 05:20:08;;;;;;;2.65;0.80;;;;;;;7.09;100.00;98080.00;4501849;31;20128;-74
2022/09/18 05:22:36;;;;;;;2.90;1.05;;;;;;;7.25;100.00;98084.69;4501782;31;20083;-74
2022/09/18 05:25:07;;;;;;;4.50;1.00;;;;;;;7.31;100.00;98086.75;4501798;31;20092;-74
2022/09/18 05:27:34;;;;;;;3.67;0.95;;;;;;;7.37;100.00;98085.41;4501391;31;20095;-74
2022/09/18 05:30:03;;;;;;;3.50;1.10;;;;;;;7.42;100.00;98089.25;4501644;31;20429;-74
2022/09/18 05:32:32;;;;;;;4.30;1.00;;;;;;;7.50;100.00;98095.59;4501493;31;20084;-74
2022/09/18 05:34:59;;;;;;;2.60;1.00;;;;;;;7.55;100.00;98091.59;4501144;31;20087;-74
2022/09/18 05:37:27;;;;;;;2.75;1.05;;;;;;;7.60;100.00;98080.78;4501449;31;20143;-74
2022/09/18 05:39:55;;;;;;;3.50;0.98;;;;;;;7.67;100.00;98091.50;4501694;31;20196;-74
2022/09/18 05:42:22;;;;;;;2.35;0.70;;;;;;;7.83;100.00;98086.59;4501355;31;20087;-74
2022/09/18 05:44:49;;;;;;;3.33;0.80;;;;;;;7.95;100.00;98080.28;4501405;31;20528;-74
2022/09/18 05:47:17;;;;;;;2.72;0.95;;;;;;;8.01;100.00;98073.69;4501551;31;20118;-74
2022/09/18 05:49:44;;;;;;;1.85;0.60;;;;;;;8.11;100.00;98084.09;4501607;31;20134;-74
2022/09/18 05:52:11;;;;;;;2.90;0.85;;;;;;;8.18;100.00;98080.78;4501561;31;20088;-74
2022/09/18 05:54:38;;;;;;;1.73;0.80;;;;;;;8.28;100.00;98086.03;4501511;31;20605;-74
2022/09/18 05:57:07;;;;;;;1.37;0.73;;;;;;;8.40;100.00;98078.03;4501446;31;20428;-74
2022/09/18 05:59:34;;;;;;;1.42;0.60;;;;;;;8.45;100.00;98079.28;4501254;31;20100;-74
2022/09/18 06:02:01;;;;;;;0.50;0.50;;;;;;;8.52;100.00;98092.59;4500972;31;20087;-74
2022/09/18 06:04:31;;;;;;;1.42;0.60;;;;;;;8.65;100.00;98074.03;4495521;31;20092;-74
2022/09/18 06:07:00;;;;;;;1.10;0.80;;;;;;;8.65;100.00;98093.09;4485794;31;203750;-74
2022/09/18 06:09:27;;;;;;;1.58;0.90;;;;;;;8.62;100.00;98096.00;4500115;31;20112;-75
2022/09/18 06:11:55;;;;;;;1.08;0.73;;;;;;;8.67;100.00;98092.97;4501468;31;20119;-74
2022/09/18 06:14:22;;;;;;;1.90;0.88;;;;;;;8.72;100.00;98108.22;4501377;31;20087;-74
2022/09/18 06:16:49;;;;;;;3.03;0.90;;;;;;;8.75;100.00;98094.87;4501463;31;20102;-74
2022/09/18 06:19:17;;;;;;;1.05;0.70;;;;;;;8.68;100.00;98099.84;4501233;31;20096;-74
2022/09/18 06:21:45;;;;;;;1.27;0.88;;;;;;;8.56;100.00;98093.16;4501403;31;20167;-74
2022/09/18 06:24:12;;;;;;;1.83;0.88;;;;;;;8.47;100.00;98105.25;4501378;31;20489;-74
2022/09/18 06:26:40;;;;;;;1.55;1.17;;;;;;;8.45;100.00;98100.16;4500141;31;20382;-74
2022/09/18 06:29:07;;;;;;;1.83;0.93;;;;;;;8.45;100.00;98112.41;4501070;31;20201;-74
2022/09/18 06:31:36;;;;;;;1.58;0.95;;;;;;;8.48;100.00;98120.78;4501383;31;20112;-74
2022/09/18 06:34:03;;;;;;;2.92;1.10;;;;;;;8.53;100.00;98118.56;4501226;31;20084;-74
2022/09/18 06:36:30;;;;;;;3.45;0.73;;;;;;;8.60;100.00;98118.84;4501399;31;20084;-74
2022/09/18 06:38:58;;;;;;;1.60;0.85;;;;;;;8.80;100.00;98116.16;4501384;31;20157;-75
2022/09/18 06:41:25;;;;;;;2.17;1.45;;;;;;;8.95;100.00;98106.06;4501426;31;20119;-75
2022/09/18 06:43:53;;;;;;;3.35;1.33;;;;;;;9.11;100.00;98110.69;4501542;31;20096;-75
2022/09/18 06:46:23;;;;;;;3.05;1.12;;;;;;;9.31;100.00;98111.41;4501424;31;20136;-74
2022/09/18 06:48:51;;;;;;;1.30;0.88;;;;;;;9.41;100.00;98110.41;4501218;31;20404;-75
2022/09/18 06:51:18;;;;;;;2.45;0.73;;;;;;;9.55;100.00;98110.87;4501010;31;20087;-75
2022/09/18 06:53:50;;;;;;;1.58;0.73;;;;;;;9.62;100.00;98106.72;4501308;31;20151;-75
2022/09/18 06:56:18;;;;;;;1.00;0.80;;;;;;;9.73;100.00;98101.25;4501135;31;20076;-75
2022/09/18 06:58:46;;;;;;;2.53;0.70;;;;;;;9.89;100.00;98099.78;4500956;31;20108;-75
2022/09/18 07:01:14;;;;;;;2.00;0.60;;;;;;;9.93;100.00;98112.44;4500971;31;20467;-75
2022/09/18 07:03:42;;;;;;;3.70;0.55;;;;;;;10.00;100.00;98091.72;4499903;31;20444;-74
2022/09/18 07:06:09;;;;;;;0.80;0.50;;;;;;;10.04;97.87;98100.91;4499201;31;20530;-75
2022/09/18 07:08:37;;;;;;;3.53;0.77;;;;;;;10.19;96.64;98098.59;4484953;31;20183;-74
2022/09/18 07:11:06;;;;;;;0.82;0.70;;;;;;;10.27;96.53;98103.06;4485290;31;20184;-74
2022/09/18 07:13:36;;;;;;;5.43;0.73;;;;;;;10.39;95.62;98104.50;4485022;31;20119;-74
2022/09/18 07:16:04;;;;;;;3.03;0.43;;;;;;;10.61;95.17;98112.81;4483599;31;20076;-74
2022/09/18 07:18:32;;;;;;;1.12;0.40;;;;;;;10.65;91.25;98103.69;4485087;31;20146;-74
2022/09/18 07:21:00;;;;;;;0.80;0.50;;;;;;;10.72;89.74;98115.19;4485062;31;20535;-75
2022/09/18 07:23:29;;;;;;;1.02;0.40;;;;;;;10.76;89.81;98124.38;4485138;31;20144;-75
2022/09/18 07:26:00;;;;;;;7.55;0.90;;;;;;;10.81;91.50;98135.22;4485065;31;20107;-75
2022/09/18 07:28:28;;;;;;;0.65;0.40;;;;;;;11.03;88.08;98121.75;4484924;31;20131;-75
2022/09/18 07:30:55;;;;;;;2.20;0.43;;;;;;;11.08;87.79;98130.81;4484681;31;20431;-75
2022/09/18 07:33:23;;;;;;;4.12;0.40;;;;;;;10.98;88.24;98124.84;4484895;32;20149;-75
2022/09/18 07:35:51;;;;;;;0.85;0.30;;;;;;;10.97;83.30;98120.56;4484876;31;20645;-75
2022/09/18 07:38:22;;;;;;;3.08;0.28;;;;;;;11.04;82.96;98134.72;4484827;31;20471;-75
2022/09/18 07:40:50;;;;;;;1.17;0.40;;;;;;;11.34;83.99;98135.19;4484499;31;20183;-75
2022/09/18 07:43:18;;;;;;;1.42;0.40;;;;;;;11.34;80.44;98136.00;4484399;31;20377;-75
2022/09/18 07:45:49;;;;;;;5.43;1.10;;;;;;;11.41;80.39;98140.63;4484724;31;20110;-75
2022/09/18 07:48:16;;;;;;;2.65;0.47;;;;;;;11.52;84.42;98140.31;4484704;31;20483;-75
2022/09/18 07:50:45;;;;;;;0.75;0.32;;;;;;;11.42;82.35;98150.94;4484708;31;20450;-75
2022/09/18 07:53:13;;;;;;;0.35;0.20;;;;;;;11.43;81.38;98142.09;4484536;31;20450;-75
2022/09/18 07:55:46;;;;;;;0.98;0.40;;;;;;;11.30;80.65;98165.31;4484388;31;20092;-75
2022/09/18 07:58:13;;;;;;;1.33;0.52;;;;;;;11.29;82.15;98140.87;4484420;31;20412;-75
2022/09/18 08:00:41;;;;;;;4.85;0.40;;;;;;;11.43;81.16;98170.97;4484488;31;20179;-75
2022/09/18 08:03:11;;;;;;;1.85;0.73;;;;;;;11.50;80.00;98166.69;4484471;31;20080;-75
2022/09/18 08:05:39;;;;;;;0.80;0.30;;;;;;;11.59;80.18;98195.59;4495524;31;20099;-75
2022/09/18 08:08:07;;;;;;;0.93;0.57;;;;;;;11.65;80.44;98160.88;4485633;31;20142;-75
2022/09/18 08:10:39;;;;;;;2.92;0.93;;;;;;;11.99;79.83;98184.47;4484186;31;20137;-75
2022/09/18 08:13:07;;;;;;;4.93;0.50;;;;;;;12.17;79.73;98173.00;4484517;31;20092;-75
2022/09/18 08:15:39;;;;;;;3.03;0.50;;;;;;;12.33;77.37;98177.44;4484290;31;20148;-75
2022/09/18 08:18:12;;;;;;;7.03;0.65;;;;;;;12.43;80.41;98197.31;4484538;31;20085;-75
2022/09/18 08:20:41;;;;;;;0.80;0.60;;;;;;;12.45;76.70;98175.34;4484360;31;20151;-75
2022/09/18 08:23:11;;;;;;;2.53;0.60;;;;;;;12.53;77.38;98197.16;4484153;32;20084;-75
2022/09/18 08:25:40;;;;;;;1.60;0.68;;;;;;;12.60;77.47;98200.78;4484368;31;20442;-75
2022/09/18 08:28:07;;;;;;;3.10;0.43;;;;;;;12.70;74.27;98184.00;4485973;31;20474;-75
2022/09/18 08:30:35;;;;;;;1.35;0.43;;;;;;;12.60;74.13;98187.63;4486469;31;20092;-75
2022/09/18 08:33:05;;;;;;;1.17;0.65;;;;;;;12.67;75.29;98193.06;4486247;31;20179;-75
2022/09/18 08:35:33;;;;;;;0.47;0.30;;;;;;;12.63;74.45;98183.03;4486265;32;20092;-75
2022/09/18 08:38:02;;;;;;;0.77;0.40;;;;;;;12.30;74.58;98204.84;4486535;31;20288;-75
2022/09/18 08:40:45;;;;;;;0.77;0.50;;;;;;;12.15;72.88;98186.28;4486333;31;20465;-75
2022/09/18 08:43:18;;;;;;;0.93;0.50;;;;;;;12.06;76.06;98192.50;4485242;32;20170;-75
2022/09/18 08:46:08;;;;;;;1.17;0.43;;;;;;;12.15;75.29;98204.66;4486385;31;20107;-75
2022/09/18 08:48:55;;;;;;;0.70;0.40;;;;;;;11.95;75.63;98198.06;4486460;31;20089;-75
2022/09/18 08:51:29;;;;;;;1.25;0.60;;;;;;;11.97;77.23;98196.09;4484697;32;20122;-75
2022/09/18 08:54:15;;;;;;;1.52;0.35;;;;;;;12.07;75.13;98189.72;4486354;32;20126;-75
2022/09/18 08:56:43;;;;;;;1.23;0.45;;;;;;;12.18;74.67;98206.16;4484707;32;20084;-75
2022/09/18 08:59:20;;;;;;;9.27;0.70;;;;;;;12.42;71.80;98202.75;4484863;32;20100;-75
2022/09/18 09:02:12;;;;;;;2.20;0.32;;;;;;;12.70;73.51;98199.78;4484764;32;20096;-75
2022/09/18 09:04:40;;;;;;;2.28;0.40;;;;;;;12.96;71.38;98200.44;4490694;31;20135;-75
2022/09/18 09:07:19;;;;;;;1.45;0.57;;;;;;;12.40;70.67;98216.03;4492821;31;20521;-75
2022/09/18 09:10:02;;;;;;;2.17;0.43;;;;;;;12.05;73.54;98202.19;4485836;31;20096;-75
2022/09/18 09:12:33;;;;;;;6.72;0.32;;;;;;;11.80;75.45;98219.63;4486307;31;20097;-75
2022/09/18 09:15:12;;;;;;;2.40;0.40;;;;;;;11.74;77.19;98201.91;4486268;31;20088;-75
2022/09/18 09:18:03;;;;;;;2.03;0.57;;;;;;;11.79;76.02;98209.28;4486070;32;20152;-75
2022/09/18 09:20:55;;;;;;;1.48;0.73;;;;;;;11.83;77.34;98214.06;4484589;32;20108;-75
2022/09/18 09:23:47;;;;;;;2.92;0.60;;;;;;;11.83;76.27;98219.31;4486096;31;20088;-75
2022/09/18 09:26:18;;;;;;;0.43;0.32;;;;;;;11.96;76.17;98212.81;4486031;31;20092;-75
2022/09/18 09:29:30;;;;;;;1.23;0.40;;;;;;;12.50;75.00;98215.06;4484675;32;20147;-75
2022/09/18 09:32:09;;;;;;;0.82;0.30;;;;;;;12.64;72.30;98214.41;4436560;32;20160;-75
2022/09/18 09:34:43;;;;;;;1.25;0.50;;;;;;;12.31;72.91;98216.16;4424138;32;20144;-75
2022/09/18 09:37:13;;;;;;;;;;;;;;;12.33;75.48;98219.47;4436891;32;20884;-75
2022/09/18 09:39:48;;;;;;;3.37;0.40;;;;;;;12.16;76.13;98208.13;4423489;32;19984;-75
2022/09/18 09:42:32;;;;;;;2.20;0.40;;;;;;;11.89;75.90;98216.03;4436531;32;20186;-75
2022/09/18 09:45:08;;;;;;;0.77;0.40;;;;;;;11.60;76.41;98220.88;4436815;32;20199;-75
2022/09/18 09:47:49;;;;;;;0.32;0.32;;;;;;;11.84;77.30;98243.75;4424171;32;20216;-75
2022/09/18 09:50:45;;;;;;;4.60;0.50;;;;;;;11.83;77.65;98226.38;4423988;32;20431;-75
2022/09/18 09:53:14;;;;;;;0.88;0.40;;;;;;;11.88;78.37;98234.56;4424126;32;20117;-75
2022/09/18 09:56:11;;;;;;;1.00;0.40;;;;;;;11.87;77.68;98231.16;4436650;32;20109;-75
2022/09/18 09:58:48;;;;;;;2.67;0.40;;;;;;;11.94;74.81;98225.28;4423908;32;20220;-76
2022/09/18 10:01:27;;;;;;;3.15;0.40;;;;;;;11.97;74.85;98232.84;4423490;32;20116;-75
2022/09/18 10:04:05;;;;;;;0.80;0.22;;;;;;;12.06;74.21;98226.63;4436440;32;20131;-75
2022/09/18 10:07:00;;;;;;;0.43;0.40;;;;;;;12.03;75.08;98227.75;4475165;31;20434;-75
2022/09/18 10:09:55;;;;;;;0.37;0.20;;;;;;;12.20;73.34;98231.28;4500283;31;20091;-75
2022/09/18 10:12:36;;;;;;;0.20;0.20;;;;;;;12.12;72.12;98231.25;4499997;31;20087;-76
2022/09/18 10:15:27;;;;;;;7.20;0.50;;;;;;;12.27;71.11;98243.75;4486909;31;20426;-75
2022/09/18 10:17:57;;;;;;;1.55;0.30;;;;;;;12.48;71.69;98233.63;4500154;31;20100;-75
2022/09/18 10:20:30;;;;;;;0.47;0.40;;;;;;;12.56;71.62;98232.78;4501400;31;20075;-75
2022/09/18 10:23:02;;;;;;;7.85;0.47;;;;;;;12.47;68.33;98242.47;4499639;31;20178;-75
2022/09/18 10:25:34;;;;;;;5.05;0.37;;;;;;;12.54;68.81;98238.22;4501219;31;20099;-75
2022/09/18 10:28:02;;;;;;;0.98;0.30;;;;;;;12.58;70.47;98225.56;4500233;31;20108;-76
2022/09/18 10:30:30;;;;;;;1.48;0.30;;;;;;;12.48;71.21;98238.06;4501245;31;20095;-75
2022/09/18 10:32:58;;;;;;;3.08;1.00;;;;;;;12.46;69.83;98240.84;4501002;31;20118;-75
2022/09/18 10:35:29;;;;;;;0.70;0.30;;;;;;;12.35;71.36;98241.13;4501074;31;20168;-76
2022/09/18 10:37:58;;;;;;;1.00;0.30;;;;;;;12.24;69.98;98237.00;4501443;31;20095;-76
2022/09/18 10:40:38;;;;;;;2.30;0.50;;;;;;;12.22;71.55;98242.44;4500016;31;20771;-75
2022/09/18 10:43:06;;;;;;;3.75;0.57;;;;;;;12.20;71.24;98228.66;4499942;31;20098;-75
2022/09/18 10:45:40;;;;;;;0.68;0.40;;;;;;;12.22;70.97;98254.75;4500048;31;20100;-75
2022/09/18 10:48:18;;;;;;;1.08;0.40;;;;;;;12.50;71.32;98234.25;4500123;31;20118;-75
2022/09/18 10:50:53;;;;;;;1.48;0.40;;;;;;;12.68;69.20;98231.47;4499727;31;20118;-75
2022/09/18 10:53:28;;;;;;;2.75;0.40;;;;;;;12.94;71.14;98241.84;4501206;31;20068;-76
2022/09/18 10:56:05;;;;;;;3.08;0.40;;;;;;;13.04;69.47;98248.75;4501196;31;20085;-75
2022/09/18 10:58:33;;;;;;;2.97;0.55;;;;;;;13.22;71.04;98244.12;4501066;31;20088;-75
2022/09/18 11:01:02;;;;;;;1.65;0.70;;;;;;;13.51;71.22;98252.47;4501093;31;20218;-76
2022/09/18 11:03:30;;;;;;;2.65;0.37;;;;;;;13.57;69.01;98242.09;4500818;31;20095;-76
2022/09/18 11:06:01;;;;;;;1.48;0.60;;;;;;;13.52;68.31;98251.47;4487849;31;20112;-76
2022/09/18 11:08:40;;;;;;;4.68;0.60;;;;;;;13.82;68.13;98236.72;4500837;31;20108;-75
2022/09/18 11:11:20;;;;;;;1.87;0.40;;;;;;;13.83;68.41;98243.66;4500951;31;20083;-76
2022/09/18 11:13:51;;;;;;;0.70;0.20;;;;;;;13.54;67.66;98254.78;4500881;31;20080;-76
2022/09/18 11:16:26;;;;;;;1.33;0.52;;;;;;;13.35;67.09;98256.78;4501111;31;20483;-76
2022/09/18 11:19:12;;;;;;;1.30;0.40;;;;;;;13.58;65.87;98243.75;4500999;31;20751;-76
2022/09/18 11:22:01;;;;;;;0.73;0.40;;;;;;;13.88;65.63;98256.28;4501010;31;20118;-76
2022/09/18 11:24:34;;;;;;;2.10;0.40;;;;;;;14.12;67.52;98258.81;4501016;31;20106;-76
2022/09/18 11:27:17;;;;;;;2.50;0.32;;;;;;;14.18;63.55;98254.66;4500671;31;20091;-76
2022/09/18 11:29:44;;;;;;;4.97;0.85;;;;;;;14.07;62.81;98249.81;4500756;31;20109;-76
2022/09/18 11:32:24;;;;;;;1.08;0.50;;;;;;;13.96;64.51;98243.91;4500337;31;20096;-76
2022/09/18 11:34:57;;;;;;;1.65;0.57;;;;;;;13.69;62.23;98254.87;4500622;31;20592;-76
2022/09/18 11:37:33;;;;;;;2.30;0.45;;;;;;;13.70;64.35;98246.84;4500643;31;20084;-76
2022/09/18 11:40:24;;;;;;;1.30;0.37;;;;;;;13.64;63.25;98240.44;4500674;31;20092;-76
2022/09/18 11:42:53;;;;;;;1.27;0.80;;;;;;;13.95;62.99;98242.28;4435240;32;20211;-76
2022/09/18 11:45:38;;;;;;;6.40;1.37;;;;;;;14.17;63.22;98245.97;4423041;32;20098;-76
2022/09/18 11:48:29;;;;;;;5.43;0.55;;;;;;;14.49;62.52;98240.66;4435464;32;20181;-76
2022/09/18 11:51:00;;;;;;;0.88;0.47;;;;;;;14.85;62.08;98234.81;4422685;32;20483;-78
2022/09/18 11:53:32;;;;;;;2.50;1.08;;;;;;;14.72;61.82;98233.59;4435237;32;20136;-77
2022/09/18 11:55:59;;;;;;;2.70;0.60;;;;;;;15.00;59.95;98246.22;4422432;32;20128;-77
2022/09/18 11:58:35;;;;;;;3.30;0.43;;;;;;;14.80;59.90;98242.44;4435081;32;20153;-78
2022/09/18 12:01:40;;;;;;;0.73;0.50;;;;;;;14.84;58.49;98218.19;4422812;32;20132;-76